Time;durP1;ratioP1;P1;durP2;ratioP2;P2;SDS_P1;SDS_P2;PMS_P1;PMS_P2;Temp;Humidity;BMP_temperature;BMP_pressure;BME280_temperature;BME280_humidity;BME280_pressure;Samples;Min_cycle;Max_cycle;Signal;HPM_P1;HPM_P2
2021/03/01 00:02:23;;;;;;;1.40;1.20;;;3.30;99.90;;;;;;5000326;28;20042;-66
2021/03/01 00:04:49;;;;;;;3.28;1.58;;;3.40;99.90;;;;;;5001229;28;20417;-67
2021/03/01 00:07:16;;;;;;;5.00;1.27;;;3.50;99.90;;;;;;5001085;28;20061;-64
2021/03/01 00:09:43;;;;;;;4.93;1.60;;;3.50;99.90;;;;;;4996920;28;20157;-65
2021/03/01 00:12:10;;;;;;;11.50;1.70;;;3.50;99.90;;;;;;5000452;28;20065;-65
2021/03/01 00:14:36;;;;;;;1.85;0.90;;;3.60;99.90;;;;;;4997269;28;20057;-68
2021/03/01 00:17:03;;;;;;;2.47;1.48;;;3.60;99.90;;;;;;5001458;28;20052;-65
2021/03/01 00:19:29;;;;;;;1.92;1.05;;;3.50;99.90;;;;;;5000706;28;20042;-65
2021/03/01 00:21:56;;;;;;;3.05;0.90;;;3.50;99.90;;;;;;4999254;28;20515;-65
2021/03/01 00:24:22;;;;;;;1.73;1.30;;;3.40;99.90;;;;;;5002104;28;20050;-68
2021/03/01 00:26:49;;;;;;;1.40;1.30;;;3.40;99.90;;;;;;4998553;28;20073;-64
2021/03/01 00:29:15;;;;;;;6.50;1.70;;;3.30;99.90;;;;;;5000382;28;20478;-63
2021/03/01 00:31:57;;;;;;;4.50;1.45;;;3.30;99.90;;;;;;4998726;28;20398;-66
2021/03/01 00:34:25;;;;;;;4.35;1.92;;;3.40;99.90;;;;;;4995980;28;20064;-66
2021/03/01 00:36:51;;;;;;;4.53;1.27;;;3.50;99.90;;;;;;4997491;28;20124;-64
2021/03/01 00:39:17;;;;;;;6.03;1.40;;;3.50;99.90;;;;;;5001335;28;20058;-65
2021/03/01 00:41:44;;;;;;;4.15;1.30;;;3.50;99.90;;;;;;4998460;28;20132;-66
2021/03/01 00:44:10;;;;;;;5.53;1.00;;;3.50;99.90;;;;;;5000811;28;20809;-64
2021/03/01 00:46:37;;;;;;;3.03;1.38;;;3.60;99.90;;;;;;5003724;28;20076;-65
2021/03/01 00:49:05;;;;;;;6.63;1.77;;;3.60;99.90;;;;;;4999438;28;20111;-65
2021/03/01 00:51:32;;;;;;;3.22;1.27;;;3.60;99.90;;;;;;4999293;28;20058;-64
2021/03/01 00:53:59;;;;;;;4.32;1.23;;;3.60;99.90;;;;;;4994156;28;20046;-64
2021/03/01 00:56:32;;;;;;;2.35;1.10;;;3.60;99.90;;;;;;4998617;28;20050;-64
2021/03/01 00:58:58;;;;;;;5.03;1.33;;;3.60;99.90;;;;;;4998752;28;20076;-65
2021/03/01 01:01:25;;;;;;;3.63;1.42;;;3.60;99.90;;;;;;4996953;28;20050;-67
2021/03/01 01:03:52;;;;;;;4.85;1.30;;;3.60;99.90;;;;;;4994837;28;20164;-68
2021/03/01 01:06:25;;;;;;;3.30;1.52;;;3.60;99.90;;;;;;4999186;28;20140;-64
2021/03/01 01:08:52;;;;;;;4.40;1.83;;;3.60;99.90;;;;;;5001375;28;20469;-68
2021/03/01 01:11:18;;;;;;;1.55;1.13;;;3.60;99.90;;;;;;5000751;28;20081;-64
2021/03/01 01:13:44;;;;;;;2.13;1.23;;;3.60;99.90;;;;;;5000260;28;20409;-66
2021/03/01 01:16:11;;;;;;;3.10;1.38;;;3.50;99.90;;;;;;4999910;28;20482;-64
2021/03/01 01:18:38;;;;;;;3.97;1.48;;;3.60;99.90;;;;;;5001355;28;20046;-66
2021/03/01 01:21:04;;;;;;;2.92;1.60;;;3.60;99.90;;;;;;5000321;28;20053;-65
2021/03/01 01:23:31;;;;;;;6.60;1.58;;;3.60;99.90;;;;;;5001619;28;20054;-64
2021/03/01 01:25:57;;;;;;;3.92;1.33;;;3.70;99.90;;;;;;5002700;28;20049;-68
2021/03/01 01:28:24;;;;;;;2.20;0.88;;;3.70;99.90;;;;;;5001416;28;20520;-65
2021/03/01 01:30:50;;;;;;;3.92;1.25;;;3.90;99.90;;;;;;5004180;28;20159;-66
2021/03/01 01:33:16;;;;;;;2.42;1.00;;;4.10;99.90;;;;;;5004318;28;20105;-63
2021/03/01 01:35:43;;;;;;;1.67;0.63;;;4.20;99.90;;;;;;5001373;28;20573;-66
2021/03/01 01:38:10;;;;;;;4.90;0.90;;;4.30;99.90;;;;;;5004703;28;20151;-63
2021/03/01 01:40:36;;;;;;;5.15;1.00;;;4.30;99.90;;;;;;5004212;28;20119;-63
2021/03/01 01:43:04;;;;;;;6.80;1.50;;;4.30;99.90;;;;;;5001968;28;20056;-65
2021/03/01 01:45:30;;;;;;;4.40;1.30;;;4.30;99.90;;;;;;5002483;28;20677;-65
2021/03/01 01:47:57;;;;;;;2.05;1.17;;;4.30;99.90;;;;;;5008423;28;20050;-63
2021/03/01 01:50:26;;;;;;;3.10;0.73;;;4.20;99.90;;;;;;5005089;28;20056;-63
2021/03/01 01:52:55;;;;;;;3.13;1.40;;;4.20;99.90;;;;;;5005142;28;20049;-65
2021/03/01 01:55:24;;;;;;;3.90;1.40;;;4.20;99.90;;;;;;5005838;28;20382;-63
2021/03/01 01:57:51;;;;;;;2.17;1.17;;;4.30;99.90;;;;;;5001476;28;20050;-64
2021/03/01 02:02:56;;;;;;;3.75;1.50;;;4.40;99.90;;;;;;5002043;28;20053;-63
2021/03/01 02:05:23;;;;;;;5.45;1.05;;;4.30;99.90;;;;;;5003896;28;20061;-69
2021/03/01 02:08:13;;;;;;;2.92;0.73;;;4.30;99.90;;;;;;5002426;28;21907;-65
2021/03/01 02:10:50;;;;;;;4.43;1.25;;;4.30;99.90;;;;;;5002697;28;20054;-65
2021/03/01 02:14:15;;;;;;;2.72;1.90;;;4.30;99.90;;;;;;5001750;28;20088;-66
2021/03/01 02:16:41;;;;;;;2.20;1.52;;;4.30;99.90;;;;;;4912570;28;20067;-66
2021/03/01 02:19:08;;;;;;;3.08;1.48;;;4.40;99.90;;;;;;4939439;28;20057;-65
2021/03/01 02:21:46;;;;;;;4.68;1.20;;;4.40;99.90;;;;;;4977172;28;20050;-65
2021/03/01 02:24:17;;;;;;;4.30;1.27;;;4.30;99.90;;;;;;5003219;28;20058;-68
2021/03/01 02:26:46;;;;;;;2.42;1.25;;;4.20;99.90;;;;;;5000816;28;20508;-65
2021/03/01 02:29:17;;;;;;;5.55;1.38;;;4.20;99.90;;;;;;4998520;28;20057;-65
2021/03/01 02:31:45;;;;;;;7.97;1.88;;;4.10;99.90;;;;;;4998275;28;20375;-65
2021/03/01 02:34:16;;;;;;;1.20;0.95;;;4.00;99.90;;;;;;4999826;28;20050;-65
2021/03/01 02:37:11;;;;;;;1.70;1.50;;;3.90;99.90;;;;;;4999695;28;21545;-65
2021/03/01 02:39:43;;;;;;;2.70;1.42;;;3.90;99.90;;;;;;4995560;28;20104;-63
2021/03/01 02:42:13;;;;;;;3.72;1.25;;;3.80;99.90;;;;;;4992950;28;20140;-69
2021/03/01 02:44:41;;;;;;;3.40;1.50;;;3.70;99.90;;;;;;5002905;28;20105;-67
2021/03/01 02:47:08;;;;;;;2.80;1.40;;;3.60;99.90;;;;;;5004279;28;20162;-65
2021/03/01 02:49:36;;;;;;;3.58;1.55;;;3.60;99.90;;;;;;4998934;28;20046;-67
2021/03/01 02:52:03;;;;;;;2.88;1.80;;;3.60;99.90;;;;;;5003232;28;20049;-64
2021/03/01 02:54:30;;;;;;;2.88;1.45;;;3.50;99.90;;;;;;5002014;28;20053;-63
2021/03/01 02:56:58;;;;;;;4.25;1.70;;;3.40;99.90;;;;;;5002341;28;20081;-64
2021/03/01 02:59:25;;;;;;;23.83;2.85;;;3.30;99.90;;;;;;5000608;28;20679;-64
2021/03/01 03:01:53;;;;;;;2.20;1.40;;;3.30;99.90;;;;;;4997371;28;20058;-64
2021/03/01 03:04:21;;;;;;;2.08;1.65;;;3.20;99.90;;;;;;4999632;28;20045;-66
2021/03/01 03:06:49;;;;;;;3.65;1.77;;;3.10;99.90;;;;;;5000653;28;20049;-64
2021/03/01 03:09:17;;;;;;;6.22;1.58;;;3.10;99.90;;;;;;4999440;28;20127;-63
2021/03/01 03:11:44;;;;;;;3.88;2.20;;;3.10;99.90;;;;;;5001678;28;20053;-64
2021/03/01 03:14:17;;;;;;;1.45;1.00;;;3.10;99.90;;;;;;5001591;28;20050;-66
2021/03/01 03:16:46;;;;;;;1.85;1.30;;;3.20;99.90;;;;;;5002855;28;20092;-66
2021/03/01 03:19:13;;;;;;;2.90;1.40;;;3.10;99.90;;;;;;5001839;28;20050;-64
2021/03/01 03:21:39;;;;;;;3.45;1.17;;;3.10;99.90;;;;;;5000820;28;20054;-64
2021/03/01 03:24:06;;;;;;;2.75;1.58;;;3.10;99.90;;;;;;5000147;28;20066;-64
2021/03/01 03:26:33;;;;;;;2.75;1.45;;;3.10;99.90;;;;;;5002795;28;20054;-65
2021/03/01 03:29:00;;;;;;;13.75;2.05;;;3.10;99.90;;;;;;5002414;28;20148;-65
2021/03/01 03:31:26;;;;;;;4.32;1.38;;;3.10;99.90;;;;;;4999934;28;20061;-63
2021/03/01 03:33:53;;;;;;;4.18;1.50;;;3.20;99.90;;;;;;4998163;28;20497;-65
2021/03/01 03:36:26;;;;;;;3.53;1.63;;;3.20;99.90;;;;;;5000812;28;20487;-65
2021/03/01 03:39:07;;;;;;;3.55;1.38;;;3.20;99.90;;;;;;5003095;28;20502;-67
2021/03/01 03:41:36;;;;;;;2.42;1.00;;;3.20;99.90;;;;;;4997698;28;20061;-63
2021/03/01 03:44:04;;;;;;;6.20;1.60;;;3.10;99.90;;;;;;5000240;28;20054;-65
2021/03/01 03:46:32;;;;;;;4.72;1.70;;;3.10;99.90;;;;;;5001967;28;20054;-65
2021/03/01 03:48:59;;;;;;;3.05;1.52;;;3.00;99.90;;;;;;4998551;28;20462;-64
2021/03/01 03:51:29;;;;;;;5.63;2.42;;;2.90;99.90;;;;;;5000578;28;20046;-64
2021/03/01 03:54:08;;;;;;;5.28;2.33;;;2.80;99.90;;;;;;5002104;28;20119;-65
2021/03/01 03:56:37;;;;;;;9.20;1.60;;;2.80;99.90;;;;;;4999193;28;20117;-67
2021/03/01 03:59:10;;;;;;;5.07;2.25;;;2.70;99.90;;;;;;5002070;28;20050;-64
2021/03/01 04:01:38;;;;;;;5.93;2.22;;;2.60;99.90;;;;;;4996568;28;20501;-63
2021/03/01 04:04:09;;;;;;;7.10;1.58;;;2.60;99.90;;;;;;5002166;28;20152;-67
2021/03/01 04:06:38;;;;;;;5.72;1.92;;;2.50;99.90;;;;;;4998853;28;20703;-65
2021/03/01 04:09:10;;;;;;;2.70;1.42;;;2.50;99.90;;;;;;5001024;28;20133;-63
2021/03/01 04:11:42;;;;;;;5.78;1.83;;;2.40;99.90;;;;;;5000877;28;20378;-64
2021/03/01 04:14:11;;;;;;;4.28;1.60;;;2.40;99.90;;;;;;5005594;28;20083;-69
2021/03/01 04:16:39;;;;;;;4.18;1.63;;;2.30;99.90;;;;;;4998262;28;20551;-66
2021/03/01 04:19:07;;;;;;;2.55;1.73;;;2.30;99.90;;;;;;5001875;28;20673;-63
2021/03/01 04:21:36;;;;;;;4.63;1.80;;;2.30;99.90;;;;;;5004135;28;20488;-66
2021/03/01 04:24:04;;;;;;;5.40;1.30;;;2.30;99.90;;;;;;5002192;28;20107;-64
2021/03/01 04:26:31;;;;;;;3.95;1.55;;;2.20;99.90;;;;;;4998910;28;20062;-64
2021/03/01 04:28:58;;;;;;;3.17;2.10;;;2.20;99.90;;;;;;5000272;28;20469;-65
2021/03/01 04:31:28;;;;;;;5.75;2.35;;;2.20;99.90;;;;;;4999962;28;20993;-67
2021/03/01 04:33:56;;;;;;;4.27;1.70;;;2.30;99.90;;;;;;4998834;28;20068;-66
2021/03/01 04:36:24;;;;;;;8.75;2.42;;;2.30;99.90;;;;;;4999204;28;21908;-64
2021/03/01 04:38:51;;;;;;;7.97;2.35;;;2.40;99.90;;;;;;5001071;28;20068;-67
2021/03/01 04:41:18;;;;;;;3.22;1.85;;;2.40;99.90;;;;;;4999038;28;20057;-65
2021/03/01 04:43:46;;;;;;;3.92;1.88;;;2.40;99.90;;;;;;4993240;28;20399;-66
2021/03/01 04:46:12;;;;;;;5.13;2.75;;;2.40;99.90;;;;;;5001690;28;20145;-68
2021/03/01 04:48:41;;;;;;;3.13;2.08;;;2.40;99.90;;;;;;4998320;28;20173;-64
2021/03/01 04:51:09;;;;;;;7.15;2.03;;;2.40;99.90;;;;;;4998006;28;20083;-65
2021/03/01 04:53:36;;;;;;;4.05;1.92;;;2.40;99.90;;;;;;4999637;28;20104;-65
2021/03/01 04:56:07;;;;;;;5.20;2.17;;;2.50;99.90;;;;;;5001292;28;20050;-65
2021/03/01 04:58:37;;;;;;;2.55;1.80;;;2.50;99.90;;;;;;5004605;28;20553;-64
2021/03/01 05:01:06;;;;;;;5.78;1.80;;;2.50;99.90;;;;;;5001055;28;20061;-65
2021/03/01 05:03:33;;;;;;;2.35;1.85;;;2.50;99.90;;;;;;4998978;28;20151;-65
2021/03/01 05:06:01;;;;;;;6.07;2.25;;;2.50;99.90;;;;;;5002529;28;20054;-67
2021/03/01 05:08:28;;;;;;;3.10;2.10;;;2.50;99.90;;;;;;5004304;28;20076;-63
2021/03/01 05:10:59;;;;;;;4.40;2.50;;;2.50;99.90;;;;;;5003662;28;20046;-65
2021/03/01 05:13:26;;;;;;;1.83;1.60;;;2.50;99.90;;;;;;5005832;28;20057;-66
2021/03/01 05:15:52;;;;;;;4.10;1.90;;;2.50;99.90;;;;;;5003747;28;20952;-63
2021/03/01 05:18:19;;;;;;;9.65;2.38;;;2.60;99.90;;;;;;5003610;28;20057;-64
2021/03/01 05:20:45;;;;;;;5.10;2.30;;;2.60;99.90;;;;;;5007777;28;20490;-65
2021/03/01 05:23:12;;;;;;;4.18;2.08;;;2.70;99.90;;;;;;5003785;28;20046;-63
2021/03/01 05:25:38;;;;;;;3.88;2.22;;;2.70;99.90;;;;;;5001619;28;20397;-63
2021/03/01 05:28:05;;;;;;;5.00;2.80;;;2.70;99.90;;;;;;5004505;28;20165;-64
2021/03/01 05:30:32;;;;;;;3.45;1.90;;;2.70;99.90;;;;;;5002476;28;20140;-63
2021/03/01 05:32:59;;;;;;;2.92;2.28;;;2.70;99.90;;;;;;5005193;28;20066;-66
2021/03/01 05:35:25;;;;;;;6.28;2.63;;;2.70;99.90;;;;;;5004295;28;20245;-64
2021/03/01 05:37:52;;;;;;;2.20;2.00;;;2.70;99.90;;;;;;5003646;28;20053;-64
2021/03/01 05:40:18;;;;;;;4.20;2.08;;;2.70;99.90;;;;;;5003680;28;20054;-63
2021/03/01 05:42:48;;;;;;;5.43;2.17;;;2.70;99.90;;;;;;5002421;28;20064;-64
2021/03/01 05:45:15;;;;;;;4.35;2.65;;;2.60;99.90;;;;;;5004641;28;20061;-64
2021/03/01 05:47:41;;;;;;;4.18;3.05;;;2.50;99.90;;;;;;5002988;28;20050;-68
2021/03/01 05:50:09;;;;;;;3.60;2.55;;;2.50;99.90;;;;;;5002600;28;20555;-64
2021/03/01 05:52:39;;;;;;;4.28;3.30;;;2.40;99.90;;;;;;5005551;28;20170;-64
2021/03/01 05:55:07;;;;;;;7.03;2.33;;;2.30;99.90;;;;;;5000798;28;20058;-64
2021/03/01 05:57:35;;;;;;;2.90;2.45;;;2.30;99.90;;;;;;5000432;28;20088;-64
2021/03/01 06:00:02;;;;;;;5.72;2.67;;;2.30;99.90;;;;;;5005196;28;20048;-64
2021/03/01 06:02:32;;;;;;;3.35;2.17;;;2.30;99.90;;;;;;5001826;28;20643;-65
2021/03/01 06:05:01;;;;;;;7.55;2.40;;;2.30;99.90;;;;;;5003067;28;20053;-64
2021/03/01 06:07:28;;;;;;;2.92;2.25;;;2.30;99.90;;;;;;5004740;28;20076;-64
2021/03/01 06:09:54;;;;;;;3.47;2.25;;;2.30;99.90;;;;;;4999849;28;20046;-65
2021/03/01 06:12:20;;;;;;;2.60;2.17;;;2.40;99.90;;;;;;5004929;28;20449;-69
2021/03/01 06:14:47;;;;;;;3.22;2.40;;;2.40;99.90;;;;;;5005600;28;20042;-67
2021/03/01 06:17:19;;;;;;;2.95;2.17;;;2.40;99.90;;;;;;5002443;28;20062;-64
2021/03/01 06:19:52;;;;;;;4.30;1.90;;;2.40;99.90;;;;;;5004929;28;20057;-63
2021/03/01 06:22:24;;;;;;;4.13;2.05;;;2.40;99.90;;;;;;5002249;28;20050;-64
2021/03/01 06:25:04;;;;;;;2.67;2.47;;;2.50;99.90;;;;;;5002517;28;20137;-64
2021/03/01 06:27:43;;;;;;;4.90;2.80;;;2.60;99.90;;;;;;5004811;28;20049;-64
2021/03/01 06:30:11;;;;;;;6.25;1.80;;;2.50;99.90;;;;;;4993022;28;20154;-66
2021/03/01 06:32:38;;;;;;;3.22;2.08;;;2.60;99.90;;;;;;5003105;28;20171;-64
2021/03/01 06:35:27;;;;;;;4.63;2.15;;;2.70;99.90;;;;;;5003166;28;20066;-64
2021/03/01 06:38:13;;;;;;;5.30;2.95;;;2.80;99.90;;;;;;4999374;28;20219;-67
2021/03/01 06:40:40;;;;;;;3.10;1.80;;;2.80;99.90;;;;;;5016775;28;20050;-68
2021/03/01 06:43:14;;;;;;;4.80;2.33;;;3.00;99.90;;;;;;4998730;28;20108;-65
2021/03/01 06:45:42;;;;;;;4.15;1.92;;;3.10;99.90;;;;;;5001649;28;20050;-64
2021/03/01 06:48:09;;;;;;;3.58;2.22;;;3.20;99.90;;;;;;5004194;28;20149;-65
2021/03/01 06:50:45;;;;;;;4.18;1.80;;;3.40;99.90;;;;;;5000421;28;20111;-68
2021/03/01 06:53:16;;;;;;;1.83;1.58;;;3.50;99.90;;;;;;5004689;28;20049;-63
2021/03/01 06:56:01;;;;;;;3.25;1.42;;;3.50;99.90;;;;;;5001437;28;20111;-67
2021/03/01 06:58:32;;;;;;;2.10;1.55;;;3.70;99.90;;;;;;5002903;28;20046;-63
2021/03/01 07:01:20;;;;;;;3.17;1.60;;;3.80;99.90;;;;;;5001631;28;20227;-65
2021/03/01 07:03:49;;;;;;;2.75;1.42;;;3.90;99.90;;;;;;4997253;28;20041;-66
2021/03/01 07:06:17;;;;;;;2.90;2.55;;;3.90;99.90;;;;;;5003814;28;20120;-64
2021/03/01 07:08:54;;;;;;;2.88;1.55;;;4.00;99.90;;;;;;5001086;28;20108;-64
2021/03/01 07:11:31;;;;;;;6.38;1.95;;;4.00;99.90;;;;;;5003415;28;20053;-65
2021/03/01 07:14:03;;;;;;;3.83;1.98;;;4.00;99.90;;;;;;5001305;28;20062;-66
2021/03/01 07:16:37;;;;;;;2.85;1.30;;;4.10;99.90;;;;;;5001633;28;20041;-64
2021/03/01 07:19:31;;;;;;;3.05;1.17;;;4.20;99.90;;;;;;5000963;28;20054;-67
2021/03/01 07:22:03;;;;;;;2.42;1.25;;;4.30;99.90;;;;;;4980558;28;20402;-65
2021/03/01 07:24:31;;;;;;;3.55;1.60;;;4.40;99.90;;;;;;4990073;28;20049;-65
2021/03/01 07:27:00;;;;;;;4.50;1.73;;;4.60;99.90;;;;;;4991311;28;20082;-68
2021/03/01 07:29:31;;;;;;;2.95;1.73;;;4.70;99.90;;;;;;4981712;28;20078;-63
2021/03/01 07:32:00;;;;;;;7.10;2.08;;;4.80;99.90;;;;;;4985395;28;20055;-68
2021/03/01 07:34:28;;;;;;;10.43;2.05;;;4.90;99.90;;;;;;5000536;28;20050;-63
2021/03/01 07:36:56;;;;;;;5.10;1.30;;;5.00;99.90;;;;;;4998895;28;20120;-65
2021/03/01 07:39:22;;;;;;;4.82;2.22;;;5.10;99.90;;;;;;5001432;28;20065;-64
2021/03/01 07:41:51;;;;;;;3.80;1.17;;;5.20;99.90;;;;;;5004519;28;20103;-64
2021/03/01 07:44:28;;;;;;;4.78;3.30;;;5.20;99.90;;;;;;5000986;28;20172;-65
2021/03/01 07:46:56;;;;;;;3.65;1.92;;;5.30;99.90;;;;;;5001785;28;20127;-64
2021/03/01 07:49:41;;;;;;;6.97;1.92;;;5.30;99.90;;;;;;5002407;28;20131;-66
2021/03/01 07:52:27;;;;;;;5.13;2.05;;;5.40;99.90;;;;;;4996416;28;20060;-64
2021/03/01 07:55:11;;;;;;;3.50;1.40;;;5.50;99.90;;;;;;5003710;28;20057;-66
2021/03/01 07:57:40;;;;;;;6.68;1.77;;;5.60;99.90;;;;;;5007616;28;20093;-66
2021/03/01 08:00:36;;;;;;;6.97;3.00;;;5.60;99.90;;;;;;5002274;28;20834;-64
2021/03/01 08:03:49;;;;;;;5.75;2.05;;;5.70;99.90;;;;;;4983498;28;20050;-64
2021/03/01 08:06:16;;;;;;;6.63;1.60;;;5.80;99.90;;;;;;4996278;28;20145;-63
2021/03/01 08:08:43;;;;;;;9.18;1.63;;;5.80;99.90;;;;;;5004517;28;20050;-65
2021/03/01 08:11:10;;;;;;;6.90;1.73;;;5.90;99.90;;;;;;4999383;28;20049;-68
2021/03/01 08:13:37;;;;;;;9.55;2.45;;;5.90;99.90;;;;;;5000410;28;20072;-63
2021/03/01 08:16:22;;;;;;;10.45;3.03;;;5.80;99.90;;;;;;4999378;28;20049;-66
2021/03/01 08:18:57;;;;;;;5.47;1.98;;;5.90;99.90;;;;;;5002996;28;20050;-66
2021/03/01 08:21:27;;;;;;;10.15;2.53;;;6.00;99.90;;;;;;5002774;28;20496;-64
2021/03/01 08:23:54;;;;;;;8.90;3.00;;;6.00;99.90;;;;;;5005382;28;20692;-63
2021/03/01 08:26:47;;;;;;;8.77;2.65;;;6.10;99.90;;;;;;5000895;28;20100;-64
2021/03/01 08:29:16;;;;;;;5.07;1.63;;;6.10;99.90;;;;;;4999722;28;20650;-64
2021/03/01 08:31:43;;;;;;;10.73;2.70;;;6.10;99.90;;;;;;4998018;28;20073;-66
2021/03/01 08:34:23;;;;;;;14.50;2.78;;;6.00;99.90;;;;;;5004407;28;20453;-67
2021/03/01 08:36:50;;;;;;;3.92;2.28;;;6.00;99.90;;;;;;4999741;28;20050;-65
2021/03/01 08:39:59;;;;;;;12.05;2.75;;;6.00;99.90;;;;;;4999013;28;20100;-64
2021/03/01 08:42:44;;;;;;;7.88;1.90;;;6.00;99.90;;;;;;5000512;28;20119;-65
2021/03/01 08:45:11;;;;;;;7.63;2.80;;;6.00;99.90;;;;;;5000523;28;20076;-68
2021/03/01 08:47:52;;;;;;;7.25;2.08;;;6.00;99.90;;;;;;5000523;28;20672;-66
2021/03/01 08:50:25;;;;;;;8.40;2.80;;;6.10;99.90;;;;;;5000284;28;20100;-63
2021/03/01 08:53:07;;;;;;;8.85;2.42;;;6.00;99.90;;;;;;4998927;28;20050;-63
2021/03/01 08:55:36;;;;;;;9.35;2.95;;;6.00;99.90;;;;;;5003800;28;20057;-64
2021/03/01 08:58:09;;;;;;;8.33;2.50;;;6.00;99.90;;;;;;5000143;28;20038;-64
2021/03/01 09:00:53;;;;;;;7.90;2.28;;;6.00;99.90;;;;;;5000968;28;20046;-64
2021/03/01 09:03:22;;;;;;;5.95;2.00;;;6.00;99.90;;;;;;5001350;28;20062;-63
2021/03/01 09:05:51;;;;;;;14.48;2.67;;;6.00;99.90;;;;;;5000782;28;20096;-69
2021/03/01 09:08:28;;;;;;;8.43;2.40;;;6.00;99.90;;;;;;5000524;28;20069;-64
2021/03/01 09:10:56;;;;;;;6.25;2.22;;;6.10;99.90;;;;;;4998434;28;20050;-64
2021/03/01 09:13:24;;;;;;;14.38;4.35;;;6.20;99.90;;;;;;5000653;28;20058;-64
2021/03/01 09:15:51;;;;;;;10.63;2.13;;;6.30;99.90;;;;;;4998872;28;20386;-65
2021/03/01 09:18:18;;;;;;;8.80;2.95;;;6.40;99.90;;;;;;4998837;28;20045;-64
2021/03/01 09:20:48;;;;;;;10.57;2.10;;;6.40;99.90;;;;;;5001615;28;20062;-68
2021/03/01 09:23:29;;;;;;;14.40;5.43;;;6.40;99.90;;;;;;4999894;28;20139;-65
2021/03/01 09:25:55;;;;;;;8.15;2.95;;;6.40;99.90;;;;;;4993516;28;20438;-64
2021/03/01 09:28:32;;;;;;;10.48;2.42;;;6.40;99.90;;;;;;5002716;28;20058;-65
2021/03/01 09:31:10;;;;;;;15.40;4.20;;;6.30;99.90;;;;;;4997548;28;20046;-64
2021/03/01 09:33:38;;;;;;;8.75;3.13;;;6.30;99.90;;;;;;4999549;28;20041;-63
2021/03/01 09:36:07;;;;;;;9.50;2.25;;;6.30;99.90;;;;;;5000871;28;20061;-66
2021/03/01 09:38:35;;;;;;;10.80;3.08;;;6.30;99.90;;;;;;4999712;28;20046;-66
2021/03/01 09:41:08;;;;;;;9.63;2.38;;;6.40;99.90;;;;;;5001138;28;20046;-68
2021/03/01 09:43:35;;;;;;;7.95;2.90;;;6.40;99.90;;;;;;4996265;28;20198;-66
2021/03/01 09:46:04;;;;;;;7.95;3.05;;;6.30;99.90;;;;;;5005544;28;20057;-64
2021/03/01 09:48:40;;;;;;;14.30;2.53;;;6.30;99.90;;;;;;5005247;28;20061;-66
2021/03/01 09:51:08;;;;;;;9.40;3.55;;;6.40;99.90;;;;;;5000058;28;20552;-64
2021/03/01 09:53:35;;;;;;;24.25;4.45;;;6.50;99.90;;;;;;5001608;28;20457;-63
2021/03/01 09:56:03;;;;;;;30.77;4.90;;;6.50;99.90;;;;;;5004599;28;20050;-64
2021/03/01 09:58:32;;;;;;;13.68;4.35;;;6.60;99.90;;;;;;5002808;28;20507;-66
2021/03/01 10:01:09;;;;;;;8.63;2.47;;;6.50;99.90;;;;;;5006202;28;20472;-64
2021/03/01 10:03:47;;;;;;;7.00;2.53;;;6.50;99.90;;;;;;5002776;28;20061;-64
2021/03/01 10:06:16;;;;;;;6.30;2.50;;;6.50;99.90;;;;;;5002940;28;20070;-68
2021/03/01 10:08:43;;;;;;;11.45;2.72;;;6.40;99.90;;;;;;5006432;28;20070;-64
2021/03/01 10:11:22;;;;;;;22.75;4.55;;;6.50;99.90;;;;;;5003521;28;20494;-66
2021/03/01 10:13:49;;;;;;;11.65;2.90;;;6.60;99.90;;;;;;5001833;28;20096;-64
2021/03/01 10:16:32;;;;;;;19.00;3.17;;;6.70;99.90;;;;;;5005054;28;20061;-65
2021/03/01 10:19:14;;;;;;;11.30;2.85;;;6.70;99.90;;;;;;5003772;28;20722;-63
2021/03/01 10:21:42;;;;;;;12.30;2.55;;;6.70;99.90;;;;;;5000897;28;20444;-65
2021/03/01 10:24:12;;;;;;;6.63;1.80;;;6.60;99.90;;;;;;4998949;28;20120;-68
2021/03/01 10:26:56;;;;;;;8.05;2.00;;;6.50;99.90;;;;;;5002823;28;20093;-66
2021/03/01 10:29:37;;;;;;;11.07;4.80;;;6.50;99.90;;;;;;5003363;28;20141;-63
2021/03/01 10:32:16;;;;;;;8.40;3.47;;;6.60;99.90;;;;;;4999344;28;20127;-66
2021/03/01 10:34:43;;;;;;;11.07;3.17;;;6.60;99.90;;;;;;5004920;28;20050;-64
2021/03/01 10:37:11;;;;;;;17.58;3.10;;;6.60;99.90;;;;;;4999082;28;20113;-65
2021/03/01 10:39:43;;;;;;;10.18;2.67;;;6.70;99.90;;;;;;4997991;28;20060;-66
2021/03/01 10:42:15;;;;;;;10.25;2.92;;;6.70;99.90;;;;;;4997956;28;20058;-65
2021/03/01 10:44:53;;;;;;;9.40;2.60;;;6.80;99.90;;;;;;4984387;28;20066;-66
2021/03/01 10:47:25;;;;;;;5.82;2.35;;;6.90;99.90;;;;;;4982625;28;20062;-65
2021/03/01 10:49:56;;;;;;;13.43;3.08;;;7.00;99.90;;;;;;5001709;28;20065;-64
2021/03/01 10:52:24;;;;;;;13.57;3.22;;;7.00;99.90;;;;;;5002646;28;20046;-63
2021/03/01 10:54:53;;;;;;;11.57;3.20;;;7.00;99.90;;;;;;5002427;28;20068;-64
2021/03/01 10:57:19;;;;;;;16.75;3.03;;;7.10;99.90;;;;;;5001676;28;20046;-64
2021/03/01 10:59:50;;;;;;;9.07;1.83;;;7.20;99.90;;;;;;5000157;28;20066;-65
2021/03/01 11:02:17;;;;;;;16.10;3.42;;;7.30;99.90;;;;;;5002266;28;20558;-64
2021/03/01 11:04:45;;;;;;;21.95;3.15;;;7.30;99.90;;;;;;4996037;28;20050;-66
2021/03/01 11:07:12;;;;;;;8.80;1.80;;;7.40;99.90;;;;;;5003254;28;20129;-64
2021/03/01 11:09:39;;;;;;;10.85;2.67;;;7.40;99.90;;;;;;4999461;28;20409;-65
2021/03/01 11:12:06;;;;;;;17.83;2.45;;;7.40;99.90;;;;;;5000629;28;20073;-66
2021/03/01 11:14:33;;;;;;;6.57;2.42;;;7.40;99.90;;;;;;5003798;28;20073;-64
2021/03/01 11:17:01;;;;;;;14.52;3.15;;;7.40;99.90;;;;;;4999477;28;20127;-65
2021/03/01 11:19:27;;;;;;;17.02;2.17;;;7.40;99.90;;;;;;5002996;28;20045;-65
2021/03/01 11:21:54;;;;;;;18.65;3.45;;;7.40;99.90;;;;;;5003024;28;20085;-64
2021/03/01 11:24:21;;;;;;;23.15;4.78;;;7.40;99.90;;;;;;5001007;28;20359;-64
2021/03/01 11:26:49;;;;;;;8.75;2.85;;;7.50;99.90;;;;;;5001364;28;20054;-65
2021/03/01 11:29:16;;;;;;;4.80;2.13;;;7.40;99.90;;;;;;5001458;28;20046;-64
2021/03/01 11:31:43;;;;;;;14.38;2.70;;;7.50;99.90;;;;;;4992605;28;20061;-64
2021/03/01 11:34:10;;;;;;;12.10;3.80;;;7.50;99.90;;;;;;5003087;28;20157;-66
2021/03/01 11:36:38;;;;;;;16.23;3.67;;;7.50;99.90;;;;;;5000323;28;20494;-64
2021/03/01 11:39:10;;;;;;;25.38;5.88;;;7.60;99.90;;;;;;5002176;28;20053;-67
2021/03/01 11:41:38;;;;;;;11.68;2.75;;;7.70;99.90;;;;;;5000900;28;20104;-63
2021/03/01 11:44:06;;;;;;;10.02;2.80;;;7.70;99.90;;;;;;5006540;28;20046;-63
2021/03/01 11:46:34;;;;;;;15.23;4.50;;;7.80;99.90;;;;;;5000579;28;20061;-66
2021/03/01 11:49:00;;;;;;;9.45;2.30;;;7.90;99.90;;;;;;5002217;28;20116;-67
2021/03/01 11:51:27;;;;;;;4.90;1.90;;;7.90;99.90;;;;;;5002426;28;20131;-66
2021/03/01 11:53:53;;;;;;;15.45;3.95;;;7.90;99.90;;;;;;5000418;28;20049;-65
2021/03/01 11:56:20;;;;;;;25.20;3.70;;;8.00;99.90;;;;;;5001648;28;20081;-63
2021/03/01 11:58:49;;;;;;;7.38;2.50;;;8.10;99.90;;;;;;4995326;28;20060;-68
2021/03/01 12:01:16;;;;;;;9.18;2.92;;;8.30;99.90;;;;;;5002809;28;20054;-66
2021/03/01 12:03:43;;;;;;;5.70;1.65;;;8.30;99.90;;;;;;4998120;28;20143;-64
2021/03/01 12:06:10;;;;;;;8.13;2.38;;;8.40;99.90;;;;;;5000905;28;20465;-68
2021/03/01 12:08:37;;;;;;;22.15;3.30;;;8.50;99.90;;;;;;5001089;28;20083;-66
2021/03/01 12:11:04;;;;;;;11.80;2.63;;;8.60;99.90;;;;;;5001740;28;20049;-66
2021/03/01 12:13:33;;;;;;;9.38;3.03;;;8.70;99.90;;;;;;5000368;28;20109;-65
2021/03/01 12:15:59;;;;;;;15.32;2.63;;;8.70;99.90;;;;;;5000329;28;20604;-66
2021/03/01 12:18:26;;;;;;;9.07;2.17;;;8.80;99.90;;;;;;5000515;28;20657;-64
2021/03/01 12:20:52;;;;;;;6.75;2.60;;;8.90;99.90;;;;;;5001267;28;20218;-66
2021/03/01 12:23:19;;;;;;;7.57;2.75;;;9.10;99.90;;;;;;5006576;28;20119;-64
2021/03/01 12:25:45;;;;;;;13.98;2.15;;;9.10;99.90;;;;;;4997635;28;20629;-66
2021/03/01 12:28:12;;;;;;;12.75;3.58;;;9.10;99.90;;;;;;5001391;28;20107;-64
2021/03/01 12:30:38;;;;;;;5.55;1.85;;;9.20;99.90;;;;;;5001418;28;20086;-65
2021/03/01 12:33:05;;;;;;;11.02;2.42;;;9.20;99.90;;;;;;4998255;28;20639;-65
2021/03/01 12:35:33;;;;;;;14.27;2.55;;;9.30;99.90;;;;;;4999670;28;20403;-66
2021/03/01 12:37:59;;;;;;;13.88;2.72;;;9.30;99.90;;;;;;5001476;28;20042;-66
2021/03/01 12:40:27;;;;;;;8.20;4.28;;;9.30;99.90;;;;;;5001184;28;20477;-64
2021/03/01 12:42:58;;;;;;;13.98;2.53;;;9.40;99.90;;;;;;4998604;28;20149;-65
2021/03/01 12:45:25;;;;;;;7.82;2.38;;;9.50;99.90;;;;;;5000484;28;20573;-65
2021/03/01 12:47:51;;;;;;;16.25;3.08;;;9.60;99.90;;;;;;4997768;28;20046;-64
2021/03/01 12:50:18;;;;;;;16.98;2.42;;;9.50;99.90;;;;;;5001258;28;20497;-68
2021/03/01 12:52:44;;;;;;;8.77;1.77;;;9.60;99.90;;;;;;5000424;28;20060;-64
2021/03/01 12:55:12;;;;;;;11.63;2.92;;;9.50;99.90;;;;;;5002897;28;20107;-65
2021/03/01 12:57:38;;;;;;;11.95;2.90;;;9.50;99.90;;;;;;4997174;28;20722;-65
2021/03/01 13:00:08;;;;;;;8.90;3.33;;;9.50;99.90;;;;;;4998344;28;20050;-64
2021/03/01 13:02:35;;;;;;;16.08;2.97;;;9.50;99.90;;;;;;5000286;28;20056;-66
2021/03/01 13:05:02;;;;;;;7.93;2.83;;;9.60;99.90;;;;;;5001149;28;20046;-64
2021/03/01 13:07:28;;;;;;;4.47;2.20;;;9.50;99.90;;;;;;5003142;28;20578;-64
2021/03/01 13:09:55;;;;;;;6.78;1.42;;;9.40;99.90;;;;;;4999625;28;20544;-64
2021/03/01 13:12:21;;;;;;;10.45;2.15;;;9.40;99.90;;;;;;5000921;28;20054;-66
2021/03/01 13:14:48;;;;;;;11.68;2.70;;;9.40;99.90;;;;;;5000669;28;20132;-64